Funes, Argentina
Current Conditions -  °F | °C
As of 4:15 AM on Saturday 20 Dec 2014 (Local Time) from SAAR Reporting Station
Thunderstorm Thunderstorm  
Wind Chill: 77°   Ceiling: 1800
Heat Index: 79°   Visibility: 6mi
Dew Point: 66°   Wind: 7mph
Humidity: 69%   Direction: 270°W
Pressure: 29.5"   Gusts: NA
Location:  32.92°S, 60.82°W
Report Text: SAAR 200715Z 27006KT 9999 TS BKN018 BKN048 FEW050CB 25/19 Q0999
Loading
Personal Weather Stations






























Interactive Weather Map New forecast layout! Learn more

10-Day Weather Forecast

Advertisements
Track Severe Weather on mobile